Time;durP1;ratioP1;P1;durP2;ratioP2;P2;SDS_P1;SDS_P2;PMS_P1;PMS_P2;Temp;Humidity;BMP_temperature;BMP_pressure;BME280_temperature;BME280_humidity;BME280_pressure;Samples;Min_cycle;Max_cycle;Signal;HPM_P1;HPM_P2
2023/01/04 00:00:19;;;;;;;3.27;2.00;;;;;;;10.58;51.87;101596.78;680396;29;1094;-80
2023/01/04 00:00:40;;;;;;;4.18;2.00;;;;;;;10.60;51.77;101595.13;680632;29;1142;-80
2023/01/04 00:01:02;;;;;;;3.63;1.90;;;;;;;10.53;51.79;101580.94;680677;29;1221;-80
2023/01/04 00:01:23;;;;;;;4.05;2.08;;;;;;;10.66;51.83;101595.38;680656;29;2300;-79
2023/01/04 00:01:43;;;;;;;3.50;2.10;;;;;;;10.74;51.50;101597.41;680918;29;1116;-80
2023/01/04 00:02:04;;;;;;;3.58;2.00;;;;;;;10.66;51.66;101599.69;680509;29;1033;-80
2023/01/04 00:02:24;;;;;;;4.30;1.90;;;;;;;10.66;51.84;101603.22;680215;29;1939;-80
2023/01/04 00:02:45;;;;;;;4.50;1.90;;;;;;;10.57;51.92;101592.38;682983;29;1049;-80
2023/01/04 00:03:05;;;;;;;5.22;1.90;;;;;;;10.71;51.85;101605.09;685617;28;1304;-80
2023/01/04 00:03:26;;;;;;;4.30;1.90;;;;;;;10.77;51.66;101611.47;680260;28;1101;-80
2023/01/04 00:03:47;;;;;;;4.10;1.80;;;;;;;10.63;51.59;101605.69;682916;28;1179;-80
2023/01/04 00:04:08;;;;;;;4.70;2.00;;;;;;;10.66;51.76;101592.78;683026;29;1427;-80
2023/01/04 00:04:28;;;;;;;4.95;2.05;;;;;;;10.65;51.53;101593.59;682929;28;1215;-80
2023/01/04 00:04:49;;;;;;;4.93;2.28;;;;;;;10.71;51.51;101592.94;677696;29;1272;-79
2023/01/04 00:05:10;;;;;;;3.80;2.20;;;;;;;10.69;51.66;101590.28;677819;29;1021;-80
2023/01/04 00:05:30;;;;;;;4.07;2.13;;;;;;;10.68;51.46;101591.09;680712;29;1210;-79
2023/01/04 00:05:52;;;;;;;4.47;1.95;;;;;;;10.75;51.53;101609.63;683359;28;1334;-80
2023/01/04 00:06:14;;;;;;;3.45;1.80;;;;;;;10.74;51.63;101611.34;683294;28;1461;-79
2023/01/04 00:06:35;;;;;;;3.25;1.80;;;;;;;10.72;51.62;101609.50;686484;28;1867;-80
2023/01/04 00:06:56;;;;;;;3.85;1.80;;;;;;;10.69;51.46;101594.59;685605;28;1185;-80
2023/01/04 00:07:16;;;;;;;5.67;1.77;;;;;;;10.60;51.63;101587.28;682961;29;1111;-80
2023/01/04 00:07:37;;;;;;;6.25;1.83;;;;;;;10.47;51.78;101582.38;683103;29;796;-79
2023/01/04 00:07:57;;;;;;;5.00;1.90;;;;;;;10.52;51.82;101599.13;680930;29;1104;-80
2023/01/04 00:08:18;;;;;;;4.20;1.90;;;;;;;10.40;52.01;101589.94;683279;28;981;-80
2023/01/04 00:08:39;;;;;;;4.07;1.90;;;;;;;10.49;52.20;101585.94;683402;28;1273;-80
2023/01/04 00:09:00;;;;;;;4.22;2.05;;;;;;;10.56;51.98;101587.97;685639;28;1145;-80
2023/01/04 00:09:21;;;;;;;3.97;1.95;;;;;;;10.49;51.83;101588.53;685599;28;1330;-80
2023/01/04 00:09:41;;;;;;;3.67;2.00;;;;;;;10.46;52.04;101599.78;685693;28;1303;-80
2023/01/04 00:10:02;;;;;;;3.00;1.80;;;;;;;10.37;51.99;101592.44;685553;28;1279;-79
2023/01/04 00:10:23;;;;;;;3.95;2.03;;;;;;;10.41;52.05;101593.47;688296;28;889;-79
2023/01/04 00:10:43;;;;;;;4.53;2.10;;;;;;;10.44;52.09;101579.66;688218;28;1020;-79
2023/01/04 00:11:09;;;;;;;5.47;2.20;;;;;;;10.58;51.88;101596.78;685658;28;1460;-80
2023/01/04 00:11:29;;;;;;;4.18;2.08;;;;;;;10.60;51.92;101600.34;685602;28;1291;-79
2023/01/04 00:11:50;;;;;;;3.15;1.95;;;;;;;10.64;51.81;101619.63;682847;28;1166;-79
2023/01/04 00:12:11;;;;;;;2.10;1.65;;;;;;;10.63;51.96;101599.59;680928;29;1050;-80
2023/01/04 00:12:31;;;;;;;1.90;1.60;;;;;;;10.66;51.45;101590.16;680596;29;1152;-79
2023/01/04 00:12:52;;;;;;;3.58;1.60;;;;;;;10.53;51.79;101588.78;680418;29;1125;-80
2023/01/04 00:13:12;;;;;;;3.80;1.60;;;;;;;10.48;51.88;101578.94;680747;29;1389;-80
2023/01/04 00:13:33;;;;;;;4.93;1.60;;;;;;;10.51;51.71;101589.53;678572;29;1203;-80
2023/01/04 00:13:57;;;;;;;3.58;1.65;;;;;;;10.68;51.71;101591.09;680840;29;1242;-79
2023/01/04 00:14:18;;;;;;;2.97;1.70;;;;;;;10.48;52.02;101579.84;683712;29;2020;-80
2023/01/04 00:14:38;;;;;;;3.90;1.73;;;;;;;10.54;51.96;101594.84;683903;28;855;-79
2023/01/04 00:14:59;;;;;;;4.40;1.90;;;;;;;10.55;52.10;101573.16;682407;29;1071;-79
2023/01/04 00:15:19;;;;;;;4.72;2.10;;;;;;;10.44;52.04;101593.56;686174;28;1005;-80
2023/01/04 00:15:40;;;;;;;2.60;2.00;;;;;;;10.44;52.15;101567.47;688478;28;1087;-79
2023/01/04 00:16:06;;;;;;;3.00;1.90;;;;;;;10.56;52.04;101593.19;684519;28;921;-79
2023/01/04 00:16:28;;;;;;;3.15;1.75;;;;;;;10.43;52.06;101585.72;688640;28;1055;-78
2023/01/04 00:16:48;;;;;;;2.65;1.80;;;;;;;10.37;52.19;101587.22;685922;28;940;-80
2023/01/04 00:17:09;;;;;;;3.30;1.92;;;;;;;10.39;52.28;101585.56;683295;29;1136;-79
2023/01/04 00:17:29;;;;;;;2.90;1.90;;;;;;;10.43;51.98;101588.31;683374;29;1053;-79
2023/01/04 00:17:50;;;;;;;3.77;2.03;;;;;;;10.35;52.38;101578.44;688495;28;1271;-79
2023/01/04 00:18:13;;;;;;;3.92;2.13;;;;;;;10.46;52.30;101585.81;691210;28;1143;-80
2023/01/04 00:18:34;;;;;;;4.97;2.38;;;;;;;10.42;52.20;101584.81;685820;28;922;-79
2023/01/04 00:18:56;;;;;;;5.35;2.20;;;;;;;10.41;52.26;101572.59;685740;28;1128;-79
2023/01/04 00:19:16;;;;;;;3.58;1.90;;;;;;;10.45;52.27;101566.66;685888;28;971;-79
2023/01/04 00:19:37;;;;;;;4.32;1.77;;;;;;;10.46;52.34;101570.16;685858;28;1199;-78
2023/01/04 00:19:58;;;;;;;3.23;1.80;;;;;;;10.39;52.10;101559.47;685764;28;1156;-79
2023/01/04 00:20:18;;;;;;;3.53;1.88;;;;;;;10.47;52.06;101578.06;688377;28;1049;-79
2023/01/04 00:20:39;;;;;;;3.05;1.67;;;;;;;10.47;52.09;101567.63;683024;28;1448;-79
2023/01/04 00:21:20;;;;;;;3.17;1.50;;;;;;;10.39;52.22;101562.06;680588;29;842;-80
2023/01/04 00:21:41;;;;;;;2.80;1.83;;;;;;;10.48;52.08;101568.50;683050;29;1145;-79
2023/01/04 00:22:01;;;;;;;2.60;2.00;;;;;;;10.36;52.63;101558.44;683104;29;999;-79
2023/01/04 00:22:22;;;;;;;1.70;1.60;;;;;;;10.33;52.37;101543.56;685636;28;1961;-79
2023/01/04 00:22:42;;;;;;;1.85;1.75;;;;;;;10.30;52.41;101547.78;685717;28;1248;-79
2023/01/04 00:23:03;;;;;;;2.60;2.07;;;;;;;10.44;52.52;101561.38;683043;28;1283;-79
2023/01/04 00:23:23;;;;;;;3.22;2.17;;;;;;;10.33;52.38;101550.50;683002;29;1124;-80
2023/01/04 00:23:47;;;;;;;3.70;2.10;;;;;;;10.45;52.34;101564.03;680406;29;1095;-80
2023/01/04 00:24:08;;;;;;;3.55;1.90;;;;;;;10.39;52.29;101543.81;680364;29;1180;-79
2023/01/04 00:24:29;;;;;;;3.75;1.80;;;;;;;10.36;52.35;101564.56;682837;28;1850;-79
2023/01/04 00:24:49;;;;;;;4.70;1.80;;;;;;;10.37;52.50;101545.47;682583;29;1132;-79
2023/01/04 00:25:10;;;;;;;4.65;1.90;;;;;;;10.27;52.55;101538.97;682713;29;1030;-80
2023/01/04 00:25:30;;;;;;;4.30;1.90;;;;;;;10.41;52.29;101565.66;682959;29;1152;-79
2023/01/04 00:25:51;;;;;;;3.28;1.90;;;;;;;10.39;52.32;101543.81;685634;28;1159;-80
2023/01/04 00:26:14;;;;;;;3.80;1.90;;;;;;;10.41;52.18;101544.78;682950;29;1032;-80
2023/01/04 00:26:35;;;;;;;4.80;1.90;;;;;;;10.55;52.12;101562.72;680361;29;1169;-80
2023/01/04 00:26:56;;;;;;;4.05;1.88;;;;;;;10.54;51.88;101553.09;682825;29;1137;-80
2023/01/04 00:27:16;;;;;;;2.75;1.80;;;;;;;10.53;52.06;101547.00;685626;28;1013;-79
2023/01/04 00:27:38;;;;;;;2.10;1.80;;;;;;;10.55;52.08;101557.50;685778;28;888;-80
2023/01/04 00:27:58;;;;;;;2.20;1.80;;;;;;;10.59;52.14;101551.59;680279;29;1297;-79
2023/01/04 00:28:19;;;;;;;2.22;1.70;;;;;;;10.55;52.04;101547.97;680173;28;1181;-80
2023/01/04 00:28:39;;;;;;;2.53;1.50;;;;;;;10.56;52.04;101554.03;682978;29;1169;-80
2023/01/04 00:29:06;;;;;;;3.00;1.50;;;;;;;10.51;52.10;101548.66;681907;29;1034;-80
2023/01/04 00:29:26;;;;;;;3.35;1.70;;;;;;;10.52;52.10;101552.16;680281;29;1951;-80
2023/01/04 00:29:47;;;;;;;3.65;1.92;;;;;;;10.49;51.93;101565.06;682916;28;1305;-80
2023/01/04 00:30:08;;;;;;;3.05;1.95;;;;;;;10.40;52.23;101562.97;677703;29;1149;-80
2023/01/04 00:30:29;;;;;;;3.10;1.90;;;;;;;10.31;52.57;101545.22;680238;28;1339;-79
2023/01/04 00:30:50;;;;;;;3.07;1.90;;;;;;;10.39;52.43;101543.81;680243;29;1175;-80
2023/01/04 00:31:12;;;;;;;3.47;1.97;;;;;;;10.52;52.34;101541.72;683097;29;1106;-79
2023/01/04 00:31:34;;;;;;;3.40;2.00;;;;;;;10.37;52.26;101529.81;685597;28;879;-79
2023/01/04 00:31:54;;;;;;;3.33;2.20;;;;;;;10.37;52.46;101535.03;682826;29;1199;-80
2023/01/04 00:32:15;;;;;;;2.67;2.10;;;;;;;10.44;52.28;101549.22;684693;28;1041;-80
2023/01/04 00:32:36;;;;;;;2.60;1.90;;;;;;;10.44;52.23;101548.34;683105;29;763;-80
2023/01/04 00:32:57;;;;;;;2.30;1.70;;;;;;;10.47;52.34;101543.25;682861;28;1137;-80
2023/01/04 00:33:18;;;;;;;2.47;1.63;;;;;;;10.49;52.47;101544.19;685492;28;1340;-80
2023/01/04 00:33:39;;;;;;;3.43;1.70;;;;;;;10.52;52.27;101539.97;685486;28;1125;-80
2023/01/04 00:34:01;;;;;;;3.38;1.80;;;;;;;10.51;52.19;101537.34;685533;28;800;-79
2023/01/04 00:34:22;;;;;;;4.30;1.80;;;;;;;10.48;52.15;101537.19;685464;28;1140;-80
2023/01/04 00:34:42;;;;;;;3.70;1.90;;;;;;;10.55;52.11;101545.34;685512;28;1075;-80
2023/01/04 00:35:03;;;;;;;3.90;2.00;;;;;;;10.55;52.05;101550.56;685500;28;1034;-80
2023/01/04 00:35:24;;;;;;;3.20;1.90;;;;;;;10.58;51.96;101544.59;683366;28;1206;-80
2023/01/04 00:35:45;;;;;;;3.90;1.80;;;;;;;10.52;52.11;101544.31;682840;28;1243;-80
2023/01/04 00:36:09;;;;;;;4.47;1.77;;;;;;;10.58;52.16;101546.28;680096;29;1149;-80
2023/01/04 00:36:30;;;;;;;4.78;1.88;;;;;;;10.62;51.97;101546.47;682756;29;1327;-80
2023/01/04 00:36:51;;;;;;;3.70;1.90;;;;;;;10.53;52.18;101546.09;682756;29;974;-80
2023/01/04 00:37:11;;;;;;;2.50;1.70;;;;;;;10.54;52.29;101537.44;682058;29;1121;-80
2023/01/04 00:37:32;;;;;;;2.40;1.80;;;;;;;10.57;52.18;101541.91;680070;29;1166;-79
2023/01/04 00:37:52;;;;;;;3.60;2.00;;;;;;;10.59;52.18;101543.75;680115;29;1084;-80
2023/01/04 00:38:13;;;;;;;4.43;2.10;;;;;;;10.59;52.05;101535.91;680183;29;1057;-80
2023/01/04 00:38:34;;;;;;;4.30;1.90;;;;;;;10.45;52.32;101527.50;677799;29;1075;-79
2023/01/04 00:39:06;;;;;;;2.95;1.70;;;;;;;10.45;52.70;101547.50;677702;29;1170;-79
2023/01/04 00:39:28;;;;;;;2.10;1.70;;;;;;;10.51;52.32;101540.81;680383;29;1006;-80
2023/01/04 00:39:48;;;;;;;3.92;1.80;;;;;;;10.40;52.42;101537.75;677598;29;1126;-80
2023/01/04 00:40:09;;;;;;;4.38;2.00;;;;;;;10.44;52.68;101530.09;677695;29;1003;-80
2023/01/04 00:40:30;;;;;;;4.40;2.20;;;;;;;10.39;52.38;101522.94;679700;29;1208;-80
2023/01/04 00:40:50;;;;;;;3.53;2.60;;;;;;;10.49;52.22;101531.13;677661;29;1219;-80
2023/01/04 00:41:12;;;;;;;3.80;2.47;;;;;;;10.49;52.30;101523.31;680726;29;993;-80
2023/01/04 00:41:44;;;;;;;4.13;2.30;;;;;;;10.51;52.38;101527.75;677667;29;1154;-80
2023/01/04 00:42:04;;;;;;;3.83;1.95;;;;;;;10.45;52.22;101521.41;680250;29;1073;-79
2023/01/04 00:42:25;;;;;;;3.72;2.00;;;;;;;10.47;52.31;101535.41;679988;29;1967;-80
2023/01/04 00:42:45;;;;;;;2.50;1.90;;;;;;;10.45;52.56;101535.34;680117;29;1173;-79
2023/01/04 00:43:06;;;;;;;1.97;1.80;;;;;;;10.51;52.42;101524.28;680319;29;1023;-79
2023/01/04 00:43:27;;;;;;;2.13;1.80;;;;;;;10.58;52.40;101521.09;681848;29;1150;-79
2023/01/04 00:43:47;;;;;;;2.60;1.80;;;;;;;10.60;52.25;101514.19;680411;29;937;-80
2023/01/04 00:44:09;;;;;;;6.60;2.00;;;;;;;10.57;52.26;101521.88;680254;28;1352;-80
2023/01/04 00:44:33;;;;;;;6.20;1.75;;;;;;;10.65;52.04;101509.16;680608;29;915;-79
2023/01/04 00:44:54;;;;;;;6.50;1.90;;;;;;;10.58;52.13;101518.47;680153;29;1320;-79
2023/01/04 00:45:15;;;;;;;2.57;1.87;;;;;;;10.58;52.09;101510.66;681173;29;1103;-79
2023/01/04 00:45:35;;;;;;;2.50;1.90;;;;;;;10.58;52.16;101526.31;682970;28;740;-79
2023/01/04 00:45:56;;;;;;;2.95;1.70;;;;;;;10.52;52.17;101502.56;682061;28;1143;-80
2023/01/04 00:46:16;;;;;;;3.80;1.90;;;;;;;10.61;52.41;101523.81;682892;28;1043;-80
2023/01/04 00:46:37;;;;;;;3.90;1.92;;;;;;;10.53;52.27;101507.88;688285;28;816;-80
2023/01/04 00:46:59;;;;;;;3.40;1.92;;;;;;;10.50;52.29;101501.63;682438;29;1049;-79
2023/01/04 00:47:20;;;;;;;3.30;1.80;;;;;;;10.56;52.28;101520.13;690385;28;1906;-80
2023/01/04 00:47:40;;;;;;;4.60;2.00;;;;;;;10.59;52.15;101508.91;685534;28;1110;-80
2023/01/04 00:48:01;;;;;;;3.72;1.90;;;;;;;10.60;52.19;101493.31;685433;28;1028;-79
2023/01/04 00:48:22;;;;;;;3.60;1.80;;;;;;;10.51;52.30;101506.88;682778;29;1063;-80
2023/01/04 00:48:43;;;;;;;2.13;1.70;;;;;;;10.50;52.49;101531.22;682987;29;1042;-80
2023/01/04 00:49:05;;;;;;;2.50;1.95;;;;;;;10.56;52.33;101512.28;685494;28;1062;-80
2023/01/04 00:49:26;;;;;;;2.47;2.00;;;;;;;10.61;52.35;101508.16;685770;28;1111;-79
2023/01/04 00:49:47;;;;;;;2.28;1.90;;;;;;;10.67;52.14;101517.94;688112;28;1858;-80
2023/01/04 00:50:07;;;;;;;2.05;1.60;;;;;;;10.66;52.10;101505.72;688358;28;1000;-79
2023/01/04 00:50:28;;;;;;;2.95;1.70;;;;;;;10.61;52.31;101491.59;685556;28;1068;-80
2023/01/04 00:50:49;;;;;;;2.85;1.70;;;;;;;10.64;52.14;101492.59;686183;28;1113;-80
2023/01/04 00:51:10;;;;;;;3.42;1.90;;;;;;;10.72;51.74;101500.75;685564;28;1317;-80
2023/01/04 00:51:32;;;;;;;3.63;1.80;;;;;;;10.78;51.80;101500.09;685500;28;1072;-79
2023/01/04 00:51:53;;;;;;;3.33;1.90;;;;;;;10.80;51.47;101488.88;682938;29;1176;-80
2023/01/04 00:52:13;;;;;;;3.33;1.80;;;;;;;10.77;51.47;101493.09;682855;29;1049;-80
2023/01/04 00:52:34;;;;;;;2.67;1.70;;;;;;;10.80;51.69;101482.75;680311;29;860;-80
2023/01/04 00:52:55;;;;;;;3.28;1.60;;;;;;;10.85;51.51;101486.44;682948;29;1203;-80
2023/01/04 00:53:16;;;;;;;2.57;1.70;;;;;;;10.89;51.44;101492.69;685443;28;1147;-79
2023/01/04 00:53:37;;;;;;;4.97;1.90;;;;;;;10.96;51.22;101510.38;685674;28;889;-80
2023/01/04 00:54:00;;;;;;;5.25;2.10;;;;;;;11.02;51.32;101504.47;682777;29;1181;-80
2023/01/04 00:54:21;;;;;;;3.95;1.85;;;;;;;10.93;51.29;101489.34;682798;29;1066;-80
2023/01/04 00:54:41;;;;;;;2.65;1.88;;;;;;;10.89;51.45;101492.69;680986;29;1532;-80
2023/01/04 00:55:02;;;;;;;3.07;1.80;;;;;;;10.90;51.56;101500.56;683565;28;1046;-80
2023/01/04 00:55:22;;;;;;;3.65;1.92;;;;;;;10.89;51.24;101487.44;682919;28;990;-80
2023/01/04 00:55:43;;;;;;;3.95;2.30;;;;;;;10.94;51.39;101512.03;685130;28;1053;-80
2023/01/04 00:56:04;;;;;;;3.30;2.10;;;;;;;10.92;51.29;101488.47;680143;29;1269;-80
2023/01/04 00:56:26;;;;;;;4.33;2.10;;;;;;;10.96;51.33;101498.19;682825;29;1203;-79
2023/01/04 00:56:47;;;;;;;4.68;1.80;;;;;;;10.95;51.35;101499.00;682702;28;1220;-80
2023/01/04 00:57:08;;;;;;;5.72;2.10;;;;;;;10.91;51.17;101481.47;683052;29;930;-80
2023/01/04 00:57:28;;;;;;;4.60;1.90;;;;;;;10.94;51.25;101484.19;685433;28;1099;-80
2023/01/04 00:57:49;;;;;;;6.97;2.00;;;;;;;10.86;51.31;101477.78;686064;28;1109;-80
2023/01/04 00:58:10;;;;;;;5.80;1.87;;;;;;;10.85;51.38;101480.31;688810;28;964;-80
2023/01/04 00:58:30;;;;;;;5.60;1.90;;;;;;;10.88;51.38;101489.16;688180;28;1427;-80
2023/01/04 00:58:58;;;;;;;2.55;1.60;;;;;;;10.88;51.52;101485.69;685563;28;1004;-79
2023/01/04 00:59:21;;;;;;;3.63;1.63;;;;;;;10.88;51.12;101481.31;686727;28;1164;-79
2023/01/04 00:59:41;;;;;;;4.10;1.80;;;;;;;10.96;51.56;101499.91;685544;28;1135;-80
2023/01/04 01:00:03;;;;;;;3.97;1.77;;;;;;;10.94;51.35;101476.34;685523;28;1101;-79
2023/01/04 01:00:24;;;;;;;2.92;1.60;;;;;;;10.88;51.15;101468.25;685469;28;1380;-80
2023/01/04 01:00:44;;;;;;;3.40;1.65;;;;;;;10.89;51.26;101482.22;682897;29;1359;-80
2023/01/04 01:01:06;;;;;;;3.22;1.70;;;;;;;10.95;51.29;101482.47;682848;29;1284;-80
2023/01/04 01:01:28;;;;;;;2.83;1.70;;;;;;;10.82;51.34;101470.66;683012;29;1188;-79
2023/01/04 01:01:50;;;;;;;2.17;1.60;;;;;;;10.87;51.47;101479.56;682865;29;1006;-80
2023/01/04 01:02:10;;;;;;;2.20;1.63;;;;;;;10.86;51.61;101480.38;682780;28;1915;-80
2023/01/04 01:02:31;;;;;;;2.85;1.80;;;;;;;10.88;51.74;101470.88;682845;29;1186;-79
2023/01/04 01:02:51;;;;;;;2.10;1.83;;;;;;;10.92;51.40;101478.00;685497;28;1344;-80
2023/01/04 01:03:12;;;;;;;3.97;1.93;;;;;;;10.97;51.52;101479.09;685513;28;1095;-80
2023/01/04 01:03:33;;;;;;;3.42;1.73;;;;;;;11.04;51.50;101492.34;688335;28;1222;-80
2023/01/04 01:03:56;;;;;;;4.00;1.65;;;;;;;10.96;51.44;101479.91;688125;28;1005;-80
2023/01/04 01:04:18;;;;;;;3.67;1.80;;;;;;;10.93;51.41;101469.34;688777;28;1092;-80
2023/01/04 01:04:39;;;;;;;4.07;1.80;;;;;;;10.94;51.36;101476.34;688023;28;1133;-80
2023/01/04 01:05:00;;;;;;;3.30;1.60;;;;;;;10.91;51.45;101464.88;684760;28;833;-80
2023/01/04 01:05:20;;;;;;;1.90;1.40;;;;;;;10.89;51.36;101462.25;683661;28;1180;-80
2023/01/04 01:05:41;;;;;;;3.10;1.77;;;;;;;10.83;51.74;101465.47;685569;28;1330;-79
2023/01/04 01:06:03;;;;;;;3.40;1.80;;;;;;;10.80;51.78;101467.09;685484;28;1153;-80
2023/01/04 01:06:26;;;;;;;4.25;1.83;;;;;;;10.75;51.72;101476.50;685312;28;1499;-80
2023/01/04 01:06:47;;;;;;;4.18;1.60;;;;;;;10.89;51.62;101479.63;685494;28;965;-80
2023/01/04 01:07:08;;;;;;;4.40;1.60;;;;;;;10.93;51.37;101465.81;680190;28;1342;-80
2023/01/04 01:07:28;;;;;;;3.70;1.60;;;;;;;10.89;51.48;101462.25;682826;29;1104;-80
2023/01/04 01:07:49;;;;;;;2.58;1.58;;;;;;;11.01;51.47;101471.34;685550;28;1009;-80
2023/01/04 01:08:25;;;;;;;2.90;1.65;;;;;;;10.99;51.43;101468.69;682859;28;1248;-80
2023/01/04 01:08:45;;;;;;;3.53;2.00;;;;;;;10.92;51.11;101478.00;682893;29;1011;-80
2023/01/04 01:09:06;;;;;;;3.95;2.08;;;;;;;10.95;51.29;101472.03;684975;28;1364;-80
2023/01/04 01:09:28;;;;;;;3.15;1.90;;;;;;;11.01;51.29;101453.97;690542;28;1312;-80
2023/01/04 01:09:48;;;;;;;3.40;1.88;;;;;;;10.91;51.31;101460.56;688129;28;1218;-80
2023/01/04 01:10:09;;;;;;;3.67;1.77;;;;;;;10.89;51.31;101449.19;685424;28;1075;-80
2023/01/04 01:10:30;;;;;;;5.30;1.80;;;;;;;11.01;51.24;101463.53;685512;28;1145;-80
2023/01/04 01:10:52;;;;;;;5.35;1.90;;;;;;;11.05;51.24;101449.75;682925;28;1014;-79
2023/01/04 01:11:12;;;;;;;3.67;1.73;;;;;;;11.06;51.20;101449.78;682760;28;981;-79
2023/01/04 01:11:35;;;;;;;3.05;1.80;;;;;;;11.04;51.07;101450.56;682969;28;839;-79
2023/01/04 01:11:56;;;;;;;3.63;1.98;;;;;;;11.14;51.15;101484.06;679987;28;1249;-80
2023/01/04 01:12:17;;;;;;;3.80;1.85;;;;;;;11.10;51.13;101441.25;682522;29;1309;-79
2023/01/04 01:12:38;;;;;;;4.32;1.92;;;;;;;11.13;51.16;101466.59;682890;29;760;-80
2023/01/04 01:12:58;;;;;;;3.73;1.80;;;;;;;11.12;51.14;101453.47;683601;28;875;-80
2023/01/04 01:13:20;;;;;;;3.50;1.80;;;;;;;11.10;51.10;101450.78;686094;28;1342;-80
2023/01/04 01:13:41;;;;;;;2.55;1.60;;;;;;;11.17;51.15;101457.16;683357;28;1253;-79
2023/01/04 01:14:02;;;;;;;3.63;1.70;;;;;;;11.14;51.09;101465.75;686126;28;1146;-80
2023/01/04 01:14:24;;;;;;;3.80;1.70;;;;;;;11.15;51.01;101450.97;682770;28;1435;-80
2023/01/04 01:14:45;;;;;;;3.72;1.80;;;;;;;11.14;50.78;101446.56;688094;28;1132;-80
2023/01/04 01:15:06;;;;;;;2.47;1.80;;;;;;;11.13;51.05;101445.69;688224;28;1177;-80
2023/01/04 01:15:27;;;;;;;2.47;1.80;;;;;;;11.14;50.96;101442.25;682732;28;1258;-80
2023/01/04 01:15:47;;;;;;;3.55;1.80;;;;;;;11.20;51.20;101463.34;685434;28;1083;-80
2023/01/04 01:16:13;;;;;;;4.80;1.90;;;;;;;11.21;50.93;101459.94;685595;28;1004;-80
2023/01/04 01:16:34;;;;;;;4.07;1.80;;;;;;;11.18;50.63;101443.25;682911;29;1161;-80
2023/01/04 01:16:54;;;;;;;4.15;1.73;;;;;;;11.21;50.87;101448.59;682590;29;1243;-80
2023/01/04 01:17:15;;;;;;;3.70;1.70;;;;;;;11.15;50.67;101440.50;680256;29;1106;-80
2023/01/04 01:17:36;;;;;;;4.10;1.97;;;;;;;11.14;50.95;101436.13;680302;29;963;-80
2023/01/04 01:17:56;;;;;;;3.58;2.30;;;;;;;11.10;50.82;101440.34;682861;29;1096;-80
2023/01/04 01:18:17;;;;;;;4.88;2.63;;;;;;;11.09;51.02;101462.09;685303;28;1068;-80
2023/01/04 01:18:38;;;;;;;4.30;2.53;;;;;;;11.18;51.08;101454.56;685438;28;1224;-80
2023/01/04 01:18:59;;;;;;;4.05;2.30;;;;;;;11.13;50.93;101443.09;688207;28;870;-79
2023/01/04 01:19:20;;;;;;;2.75;2.05;;;;;;;11.17;50.99;101436.25;685462;28;1270;-79
2023/01/04 01:19:40;;;;;;;4.00;2.07;;;;;;;11.10;51.00;101430.81;688234;28;1174;-80
2023/01/04 01:20:03;;;;;;;3.83;1.97;;;;;;;11.21;51.07;101446.88;688254;28;863;-80
2023/01/04 01:20:23;;;;;;;5.32;2.05;;;;;;;11.21;50.72;101443.34;688310;28;1089;-80
2023/01/04 01:20:45;;;;;;;4.40;1.90;;;;;;;11.26;50.67;101456.59;685433;28;1348;-80
2023/01/04 01:21:09;;;;;;;3.65;1.80;;;;;;;11.22;50.73;101439.91;682769;28;1521;-80
2023/01/04 01:21:31;;;;;;;3.08;1.65;;;;;;;11.27;50.79;101442.69;681336;29;954;-80
2023/01/04 01:21:52;;;;;;;3.55;1.75;;;;;;;11.28;50.57;101447.06;684184;28;1114;-79
2023/01/04 01:22:12;;;;;;;3.20;1.80;;;;;;;11.22;50.82;101439.91;685310;28;1971;-79
2023/01/04 01:22:36;;;;;;;3.72;1.88;;;;;;;11.28;50.45;101429.69;682956;29;757;-80
2023/01/04 01:22:56;;;;;;;3.47;1.70;;;;;;;11.27;50.52;101437.44;682801;29;1210;-80
2023/01/04 01:23:17;;;;;;;3.45;1.50;;;;;;;11.24;50.56;101444.34;684316;28;1138;-79
2023/01/04 01:23:37;;;;;;;3.80;1.90;;;;;;;11.29;50.73;101438.41;682918;29;788;-80
2023/01/04 01:23:58;;;;;;;4.10;1.90;;;;;;;11.31;50.78;101450.69;685371;28;1186;-80
2023/01/04 01:24:19;;;;;;;5.20;2.10;;;;;;;11.30;50.73;101438.44;684546;28;1052;-79
2023/01/04 01:24:40;;;;;;;4.72;1.95;;;;;;;11.30;50.64;101434.97;682791;28;1325;-80
2023/01/04 01:25:00;;;;;;;5.63;2.30;;;;;;;11.28;50.54;101431.38;682826;29;1040;-80
2023/01/04 01:25:21;;;;;;;4.40;2.10;;;;;;;11.34;50.73;101440.34;680162;29;1024;-79
2023/01/04 01:25:41;;;;;;;2.92;1.77;;;;;;;11.33;50.54;101432.47;680286;29;1053;-79
2023/01/04 01:26:05;;;;;;;2.20;1.50;;;;;;;11.29;50.77;101425.34;682749;28;1143;-80
2023/01/04 01:26:26;;;;;;;3.45;1.52;;;;;;;11.29;50.66;101435.81;685244;28;928;-79
2023/01/04 01:26:46;;;;;;;3.20;1.50;;;;;;;11.33;50.57;101429.84;683295;28;1419;-80
2023/01/04 01:27:07;;;;;;;4.20;1.60;;;;;;;11.30;50.70;101421.91;686974;28;1276;-78
2023/01/04 01:27:28;;;;;;;3.80;1.50;;;;;;;11.24;50.73;101426.06;690954;28;1181;-79
2023/01/04 01:27:48;;;;;;;4.75;1.60;;;;;;;11.28;50.90;101423.56;684724;28;1088;-79
2023/01/04 01:28:09;;;;;;;3.83;1.50;;;;;;;11.29;51.01;101425.34;685618;28;1020;-80
2023/01/04 01:28:30;;;;;;;4.07;2.00;;;;;;;11.27;50.82;101424.38;685758;28;1083;-78
2023/01/04 01:28:51;;;;;;;3.33;2.00;;;;;;;11.19;50.92;101430.22;688189;28;1120;-80
2023/01/04 01:29:12;;;;;;;3.80;2.15;;;;;;;11.30;50.84;101442.81;688158;28;1053;-80
2023/01/04 01:29:33;;;;;;;3.28;1.75;;;;;;;11.37;50.79;101442.19;688690;28;1175;-79
2023/01/04 01:29:53;;;;;;;3.40;1.70;;;;;;;11.29;50.75;101430.59;688047;28;1106;-79
2023/01/04 01:30:14;;;;;;;2.95;1.58;;;;;;;11.28;50.85;101418.31;685390;28;1132;-79
2023/01/04 01:30:39;;;;;;;3.53;1.80;;;;;;;11.39;50.55;101432.69;681598;29;906;-79
2023/01/04 01:31:08;;;;;;;3.78;1.73;;;;;;;11.28;50.80;101428.78;680228;29;1249;-78
2023/01/04 01:31:29;;;;;;;4.25;1.60;;;;;;;11.36;50.76;101430.84;679034;29;1141;-78
2023/01/04 01:31:50;;;;;;;3.40;1.40;;;;;;;11.41;50.84;101441.44;680193;29;1022;-77
2023/01/04 01:32:11;;;;;;;3.30;1.60;;;;;;;11.32;50.82;101423.72;682807;28;1291;-78
2023/01/04 01:32:31;;;;;;;2.78;1.70;;;;;;;11.37;50.62;101429.13;685496;28;1301;-78
2023/01/04 01:32:52;;;;;;;2.67;1.70;;;;;;;11.35;50.72;101431.69;682682;28;1139;-80
2023/01/04 01:33:13;;;;;;;2.58;1.65;;;;;;;11.34;50.56;101415.94;682735;28;1481;-79
2023/01/04 01:33:38;;;;;;;2.28;1.50;;;;;;;11.37;50.61;101423.91;682802;28;1173;-79
2023/01/04 01:34:01;;;;;;;2.75;1.58;;;;;;;11.31;50.84;101415.84;682892;29;851;-78
2023/01/04 01:34:37;;;;;;;3.22;1.70;;;;;;;11.34;50.93;101423.78;681446;29;997;-78
2023/01/04 01:34:57;;;;;;;3.13;1.77;;;;;;;11.26;51.13;101425.22;685759;28;1046;-78
2023/01/04 01:35:18;;;;;;;3.00;1.60;;;;;;;11.28;51.37;101439.22;687621;28;1139;-78
2023/01/04 01:35:38;;;;;;;2.50;1.40;;;;;;;11.27;51.32;101422.69;685606;28;1056;-78
2023/01/04 01:36:00;;;;;;;2.05;1.50;;;;;;;11.32;51.23;101434.16;682795;28;1465;-78
2023/01/04 01:36:24;;;;;;;2.88;1.60;;;;;;;11.30;51.30;101427.13;682910;29;1134;-78
2023/01/04 01:36:45;;;;;;;4.72;1.95;;;;;;;11.31;51.26;101426.28;683068;28;1265;-78
2023/01/04 01:37:05;;;;;;;5.32;1.90;;;;;;;11.35;51.35;101420.31;683267;29;1181;-78
2023/01/04 01:37:26;;;;;;;5.27;1.70;;;;;;;11.25;51.15;101408.69;680684;29;1019;-77
2023/01/04 01:37:46;;;;;;;4.57;1.52;;;;;;;11.16;51.63;101411.84;680731;29;1164;-78
2023/01/04 01:38:07;;;;;;;3.63;1.70;;;;;;;11.10;51.78;101409.00;678047;29;1027;-78
2023/01/04 01:38:27;;;;;;;3.30;1.80;;;;;;;11.14;51.88;101413.53;680900;29;1103;-78
2023/01/04 01:38:48;;;;;;;2.72;1.70;;;;;;;11.18;51.63;101418.00;685984;28;1159;-78
2023/01/04 01:39:09;;;;;;;4.22;1.70;;;;;;;11.20;51.84;101421.56;685941;28;957;-78
2023/01/04 01:39:29;;;;;;;4.05;1.60;;;;;;;11.26;51.89;101430.44;686091;28;1002;-78
2023/01/04 01:39:50;;;;;;;4.43;1.70;;;;;;;11.29;51.49;101425.34;683395;29;1231;-78
2023/01/04 01:40:11;;;;;;;3.95;1.63;;;;;;;11.24;51.59;101426.06;688627;28;1136;-78
2023/01/04 01:40:32;;;;;;;4.07;1.70;;;;;;;11.23;52.00;101416.47;686134;28;811;-78
2023/01/04 01:40:52;;;;;;;3.10;1.60;;;;;;;11.32;51.51;101431.56;685884;28;1137;-78
2023/01/04 01:41:25;;;;;;;2.83;1.80;;;;;;;11.23;51.67;101406.00;685888;28;966;-78
2023/01/04 01:41:45;;;;;;;2.70;1.88;;;;;;;11.29;51.54;101404.44;688587;28;1224;-78
2023/01/04 01:42:17;;;;;;;2.53;1.80;;;;;;;11.31;51.83;101408.88;686025;28;1076;-78
2023/01/04 01:42:38;;;;;;;2.55;1.73;;;;;;;11.27;51.97;101413.94;681365;29;777;-78